Time;durP1;ratioP1;P1;durP2;ratioP2;P2;SDS_P1;SDS_P2;PMS_P1;PMS_P2;Temp;Humidity;BMP_temperature;BMP_pressure;BME280_temperature;BME280_humidity;BME280_pressure;Samples;Min_cycle;Max_cycle;Signal;HPM_P1;HPM_P2
2023/05/21 12:06:36;;;;;;;14.77;6.50;;;;;;;17.84;61.38;99758.94;5072746;28;20399;-75
2023/05/21 12:09:03;;;;;;;12.67;6.00;;;;;;;18.15;60.92;99754.97;5072862;28;20052;-75
2023/05/21 12:11:28;;;;;;;15.30;6.90;;;;;;;18.42;60.28;99758.22;5073394;28;20025;-74
2023/05/21 12:13:55;;;;;;;13.50;6.43;;;;;;;18.59;59.96;99760.13;5071142;28;20025;-75
2023/05/21 12:16:21;;;;;;;13.80;6.40;;;;;;;18.70;59.80;99761.44;5071580;28;20384;-74
2023/05/21 12:18:46;;;;;;;18.63;8.20;;;;;;;18.80;59.50;99758.25;5072543;28;20016;-76
2023/05/21 12:21:12;;;;;;;13.23;6.73;;;;;;;18.88;59.13;99751.72;5072580;28;20083;-76
2023/05/21 12:23:37;;;;;;;14.25;6.63;;;;;;;18.93;59.37;99755.91;5070582;28;20069;-75
2023/05/21 12:26:03;;;;;;;13.00;6.47;;;;;;;18.98;59.14;99752.16;5070909;28;20021;-75
2023/05/21 12:28:29;;;;;;;16.77;6.80;;;;;;;19.01;58.73;99757.38;5068482;28;20024;-75
2023/05/21 12:30:54;;;;;;;18.77;7.53;;;;;;;19.00;58.74;99751.16;5071335;28;20029;-74
2023/05/21 12:33:21;;;;;;;12.80;6.70;;;;;;;18.99;59.01;99749.44;5072748;28;20596;-75
2023/05/21 12:35:48;;;;;;;20.15;7.40;;;;;;;19.00;58.99;99756.50;5072692;28;20106;-75
2023/05/21 12:38:14;;;;;;;17.17;7.00;;;;;;;19.02;58.78;99745.75;5070939;28;20524;-75
2023/05/21 12:40:41;;;;;;;12.88;6.93;;;;;;;19.03;58.68;99748.34;5072165;28;20142;-74
2023/05/21 12:43:07;;;;;;;13.87;6.30;;;;;;;19.04;58.71;99747.41;5072380;28;20096;-73
2023/05/21 12:45:32;;;;;;;11.00;6.30;;;;;;;19.05;58.72;99746.50;5071746;28;20048;-73
2023/05/21 12:48:01;;;;;;;15.33;6.70;;;;;;;19.08;58.89;99753.47;5071917;28;20021;-73
2023/05/21 12:50:27;;;;;;;11.75;6.38;;;;;;;19.12;58.47;99749.69;5071998;28;20029;-73
2023/05/21 12:52:56;;;;;;;13.57;6.33;;;;;;;19.16;58.53;99748.63;5072914;28;20033;-73
2023/05/21 12:55:27;;;;;;;13.75;7.03;;;;;;;19.18;58.34;99743.22;5072577;28;20444;-73
2023/05/21 12:58:02;;;;;;;13.52;6.45;;;;;;;19.19;58.32;99750.28;5071278;28;20059;-73
2023/05/21 13:00:27;;;;;;;12.75;6.05;;;;;;;19.17;58.18;99739.69;5071420;28;20021;-74
2023/05/21 13:02:55;;;;;;;12.67;6.17;;;;;;;19.17;57.99;99742.38;5072493;28;20033;-75
2023/05/21 13:05:20;;;;;;;13.90;6.78;;;;;;;19.19;57.85;99739.59;5071113;28;20094;-76
2023/05/21 13:07:46;;;;;;;19.13;7.63;;;;;;;19.15;57.83;99744.22;5068679;28;20032;-77
2023/05/21 13:10:12;;;;;;;14.90;6.83;;;;;;;19.21;57.93;99737.72;5071944;28;20096;-75
2023/05/21 13:12:38;;;;;;;14.10;6.97;;;;;;;19.28;57.68;99733.81;5071750;28;20022;-76
2023/05/21 13:15:06;;;;;;;14.93;8.02;;;;;;;19.35;57.37;99737.94;5071826;28;20397;-76
2023/05/21 13:17:32;;;;;;;14.73;7.25;;;;;;;19.41;57.19;99723.41;5047624;28;20040;-76
2023/05/21 13:20:14;;;;;;;17.43;7.93;;;;;;;19.38;57.22;99725.38;5056799;28;20489;-83
2023/05/21 13:22:50;;;;;;;15.82;7.80;;;;;;;19.42;57.10;99725.16;5054146;28;20072;-77
2023/05/21 13:25:19;;;;;;;14.55;7.88;;;;;;;19.50;57.12;99720.28;5056582;28;20485;-77
2023/05/21 13:27:46;;;;;;;13.10;6.95;;;;;;;19.58;56.95;99724.34;5058469;28;20061;-77
2023/05/21 13:30:12;;;;;;;15.25;7.75;;;;;;;19.69;56.69;99726.50;5058549;28;20025;-80
2023/05/21 13:32:39;;;;;;;13.23;7.27;;;;;;;19.75;56.59;99726.16;5058963;28;20043;-78
2023/05/21 13:35:05;;;;;;;16.17;7.82;;;;;;;19.80;56.42;99718.81;5058249;28;20020;-77
2023/05/21 13:37:30;;;;;;;16.98;7.88;;;;;;;19.88;56.40;99721.06;5058647;28;20029;-77
2023/05/21 13:39:56;;;;;;;15.10;7.70;;;;;;;19.92;56.45;99720.84;5057668;28;20052;-79
2023/05/21 13:42:22;;;;;;;20.08;7.30;;;;;;;19.99;56.46;99713.41;5058303;28;20021;-77
2023/05/21 13:44:48;;;;;;;13.73;7.40;;;;;;;20.09;55.90;99713.78;5058097;28;20040;-76
2023/05/21 13:47:13;;;;;;;17.85;7.38;;;;;;;20.23;56.06;99715.72;5057296;28;20025;-76
2023/05/21 13:49:39;;;;;;;13.10;7.07;;;;;;;20.32;55.50;99709.03;5058186;28;20036;-81
2023/05/21 13:52:06;;;;;;;13.25;7.30;;;;;;;20.43;55.54;99706.63;5056992;28;20451;-84
2023/05/21 13:54:32;;;;;;;14.65;7.85;;;;;;;20.60;55.12;99703.00;5056639;28;20112;-83
2023/05/21 13:56:58;;;;;;;13.63;7.27;;;;;;;20.69;54.31;99707.00;5058130;28;20056;-82
2023/05/21 13:59:23;;;;;;;16.30;8.00;;;;;;;20.72;54.35;99705.97;5057939;28;20488;-78
2023/05/21 14:01:50;;;;;;;13.75;7.28;;;;;;;20.79;54.53;99696.66;5057876;28;20028;-79
2023/05/21 14:04:17;;;;;;;16.73;7.20;;;;;;;20.93;54.11;99704.81;5057748;28;20120;-76
2023/05/21 14:06:42;;;;;;;11.93;7.28;;;;;;;21.01;53.83;99698.16;5056514;28;20037;-79
2023/05/21 14:09:08;;;;;;;16.07;8.30;;;;;;;20.96;53.14;99697.56;5057136;28;20040;-75
2023/05/21 14:11:33;;;;;;;11.67;6.57;;;;;;;20.90;53.79;99702.31;5059707;28;20275;-74
2023/05/21 14:13:59;;;;;;;12.77;6.10;;;;;;;20.93;54.20;99699.44;5057038;28;20460;-74
2023/05/21 14:16:26;;;;;;;12.60;6.10;;;;;;;20.93;53.57;99693.22;5056726;28;20039;-74
2023/05/21 14:18:56;;;;;;;12.55;5.95;;;;;;;20.98;53.90;99695.66;5057387;28;20484;-74
2023/05/21 14:21:21;;;;;;;15.00;6.95;;;;;;;20.97;53.21;99688.56;5056776;28;20056;-74
2023/05/21 14:23:47;;;;;;;13.53;7.33;;;;;;;20.83;53.36;99692.88;5055539;28;20036;-74
2023/05/21 14:26:14;;;;;;;12.95;6.05;;;;;;;20.84;53.56;99688.41;5052636;28;20404;-74
2023/05/21 14:28:39;;;;;;;11.65;6.57;;;;;;;20.97;53.58;99683.22;5045556;28;20028;-74
2023/05/21 14:31:05;;;;;;;12.60;6.20;;;;;;;21.09;53.36;99687.84;5053638;28;20393;-74
2023/05/21 14:33:31;;;;;;;11.75;6.05;;;;;;;21.28;53.00;99682.31;5052706;28;20067;-74
2023/05/21 14:35:57;;;;;;;14.27;6.33;;;;;;;21.45;52.79;99677.78;5057279;28;20049;-74
2023/05/21 14:38:22;;;;;;;10.65;5.68;;;;;;;21.56;52.13;99679.81;5054441;28;20037;-73
2023/05/21 14:40:48;;;;;;;10.90;6.00;;;;;;;21.62;52.26;99676.78;5053392;28;20040;-74
2023/05/21 14:43:13;;;;;;;10.97;5.60;;;;;;;21.62;52.11;99671.44;5056416;28;20028;-74
2023/05/21 14:45:39;;;;;;;12.88;5.80;;;;;;;21.65;52.01;99672.13;5053854;28;20071;-74
2023/05/21 14:48:07;;;;;;;10.50;5.50;;;;;;;21.69;52.11;99677.28;5053508;28;20036;-74
2023/05/21 14:50:35;;;;;;;12.20;5.78;;;;;;;21.72;51.74;99669.94;5056415;28;20043;-74
2023/05/21 14:53:09;;;;;;;9.87;5.40;;;;;;;21.76;51.19;99665.28;5051651;28;20679;-74
2023/05/21 14:55:35;;;;;;;12.73;5.82;;;;;;;21.84;51.92;99664.81;5055714;28;20023;-74
2023/05/21 14:58:02;;;;;;;10.63;5.88;;;;;;;21.86;51.72;99666.44;5056482;28;20111;-74
2023/05/21 15:00:28;;;;;;;10.23;5.90;;;;;;;21.91;51.57;99668.84;5056275;28;20021;-72
2023/05/21 15:02:53;;;;;;;9.83;5.67;;;;;;;21.88;51.56;99661.84;5056562;28;20027;-72
2023/05/21 15:05:19;;;;;;;12.70;5.07;;;;;;;21.84;51.59;99659.44;5056040;28;20069;-72
2023/05/21 15:07:44;;;;;;;9.87;5.37;;;;;;;21.83;51.44;99663.94;5055446;28;20033;-72
2023/05/21 15:10:10;;;;;;;13.30;5.27;;;;;;;21.94;51.15;99655.25;5056143;28;20028;-73
2023/05/21 15:12:36;;;;;;;9.55;5.30;;;;;;;22.07;51.09;99652.66;5055757;28;20485;-73
2023/05/21 15:15:02;;;;;;;12.23;5.47;;;;;;;22.15;50.77;99650.34;5052749;28;20033;-73
2023/05/21 15:17:28;;;;;;;12.30;5.22;;;;;;;22.31;50.51;99650.28;5054491;28;20037;-73
2023/05/21 15:19:54;;;;;;;11.17;5.03;;;;;;;22.50;50.29;99641.06;5049720;28;20108;-73
2023/05/21 15:22:19;;;;;;;12.52;5.05;;;;;;;22.63;49.91;99650.06;5054749;28;20473;-73
2023/05/21 15:24:45;;;;;;;9.17;4.73;;;;;;;22.73;49.88;99647.66;5055951;28;20039;-73
2023/05/21 15:27:10;;;;;;;11.80;4.50;;;;;;;22.83;49.56;99645.22;5053926;28;20493;-73
2023/05/21 15:29:37;;;;;;;10.93;4.60;;;;;;;22.91;49.40;99634.84;5055757;28;20104;-72
2023/05/21 15:32:04;;;;;;;8.70;4.47;;;;;;;22.93;49.17;99640.97;5054158;28;20028;-72
2023/05/21 15:34:32;;;;;;;9.77;5.20;;;;;;;22.99;49.01;99642.41;5054106;28;20088;-74
2023/05/21 15:36:58;;;;;;;9.45;4.70;;;;;;;23.02;48.89;99638.63;5053595;28;20045;-73
2023/05/21 15:39:24;;;;;;;7.90;4.63;;;;;;;22.92;48.81;99635.72;5054381;28;20029;-72
2023/05/21 15:41:50;;;;;;;11.73;4.90;;;;;;;22.66;49.18;99643.63;5055943;28;20461;-73
2023/05/21 15:44:16;;;;;;;8.98;4.60;;;;;;;22.41;49.40;99636.28;5054749;28;20031;-73
2023/05/21 15:46:41;;;;;;;8.30;3.83;;;;;;;22.22;49.99;99646.34;5055847;28;20029;-74
2023/05/21 15:49:07;;;;;;;8.90;4.20;;;;;;;22.26;49.97;99648.84;5054661;28;20025;-73
2023/05/21 15:51:32;;;;;;;7.63;4.30;;;;;;;22.39;49.76;99641.72;5055769;28;20343;-73
2023/05/21 15:53:58;;;;;;;6.27;3.67;;;;;;;22.42;49.32;99632.63;5055936;28;20025;-82
2023/05/21 15:56:24;;;;;;;7.78;4.05;;;;;;;22.48;49.33;99640.31;5055056;28;20056;-84
2023/05/21 15:58:49;;;;;;;7.23;4.13;;;;;;;22.42;49.50;99643.34;5055194;28;20539;-88
2023/05/21 16:01:15;;;;;;;8.50;4.10;;;;;;;22.31;49.79;99642.22;5054920;28;20040;-78
2023/05/21 16:03:40;;;;;;;9.75;4.40;;;;;;;22.21;50.00;99647.31;5055937;28;20021;-74
2023/05/21 16:06:06;;;;;;;10.63;4.30;;;;;;;22.13;50.08;99636.19;5055785;28;20104;-75
2023/05/21 16:08:32;;;;;;;8.50;4.35;;;;;;;22.03;50.35;99633.22;5055711;28;20037;-75
2023/05/21 16:10:58;;;;;;;7.80;4.03;;;;;;;21.94;50.34;99639.16;5060262;28;20032;-77
2023/05/21 16:13:23;;;;;;;8.87;3.97;;;;;;;21.98;50.31;99643.38;5055240;28;20024;-76
2023/05/21 16:15:49;;;;;;;14.07;5.93;;;;;;;22.05;50.39;99639.34;5055802;28;20107;-76
2023/05/21 16:18:14;;;;;;;9.17;4.20;;;;;;;22.07;50.21;99637.44;5055992;28;20059;-76
2023/05/21 16:20:40;;;;;;;10.18;5.00;;;;;;;22.01;50.02;99629.78;5056065;28;20021;-75
2023/05/21 16:23:05;;;;;;;12.20;4.20;;;;;;;21.96;50.31;99634.56;5055760;28;20040;-76
2023/05/21 16:25:32;;;;;;;8.93;4.00;;;;;;;21.87;50.25;99637.81;5051064;28;20016;-75
2023/05/21 16:27:57;;;;;;;8.05;3.70;;;;;;;21.79;50.07;99638.28;5053091;28;20056;-74
2023/05/21 16:30:23;;;;;;;7.67;3.57;;;;;;;21.73;50.73;99627.94;5055496;28;20029;-74
2023/05/21 16:32:48;;;;;;;7.33;3.43;;;;;;;21.75;50.83;99637.59;5055174;28;20838;-74
2023/05/21 16:35:14;;;;;;;8.90;3.80;;;;;;;21.83;50.56;99634.47;5055482;28;20044;-75
2023/05/21 16:37:39;;;;;;;7.93;3.43;;;;;;;21.88;50.35;99632.34;5055774;28;20036;-76
2023/05/21 16:40:05;;;;;;;7.72;3.90;;;;;;;21.89;50.19;99636.75;5053096;28;20514;-72
2023/05/21 16:42:31;;;;;;;6.93;3.57;;;;;;;21.91;50.27;99632.16;5055733;28;20489;-73
2023/05/21 16:44:56;;;;;;;13.07;4.07;;;;;;;21.96;50.40;99633.72;5055232;28;20449;-73
2023/05/21 16:47:22;;;;;;;9.50;3.63;;;;;;;21.95;50.15;99627.47;5055684;28;20092;-73
2023/05/21 16:49:47;;;;;;;10.17;3.60;;;;;;;21.90;50.50;99629.59;5052337;28;20025;-73
2023/05/21 16:52:12;;;;;;;7.80;3.43;;;;;;;21.88;50.05;99631.50;5053470;28;20028;-73
2023/05/21 16:54:38;;;;;;;9.37;3.70;;;;;;;21.85;50.07;99626.34;5057563;28;20025;-73
2023/05/21 16:57:03;;;;;;;6.45;3.60;;;;;;;21.79;50.41;99627.56;5059135;28;20088;-73
2023/05/21 16:59:28;;;;;;;6.67;4.10;;;;;;;21.73;50.33;99620.75;5059031;28;20037;-74
2023/05/21 17:01:54;;;;;;;8.00;4.13;;;;;;;21.56;50.21;99618.19;5058962;28;20648;-73
2023/05/21 17:04:19;;;;;;;6.93;3.60;;;;;;;21.41;50.67;99618.19;5058294;28;20036;-72
2023/05/21 17:06:45;;;;;;;6.97;3.87;;;;;;;21.37;51.12;99611.28;5057582;28;20511;-73
2023/05/21 17:09:10;;;;;;;6.73;3.47;;;;;;;21.41;51.12;99620.88;5057417;28;20273;-72
2023/05/21 17:11:35;;;;;;;10.97;3.40;;;;;;;21.45;50.92;99614.38;5060109;28;20036;-73
2023/05/21 17:14:01;;;;;;;6.40;3.07;;;;;;;21.47;51.08;99612.44;5058263;28;20106;-73
2023/05/21 17:16:26;;;;;;;8.17;3.60;;;;;;;21.51;50.78;99613.97;5058654;28;20040;-72
2023/05/21 17:18:52;;;;;;;11.82;3.70;;;;;;;21.56;50.42;99611.03;5057447;28;20091;-72
2023/05/21 17:21:18;;;;;;;5.50;3.10;;;;;;;21.59;50.84;99613.53;5055324;28;20045;-72
2023/05/21 17:23:43;;;;;;;9.10;3.80;;;;;;;21.61;50.68;99608.94;5054656;28;20082;-72
2023/05/21 17:26:09;;;;;;;6.90;3.27;;;;;;;21.61;50.71;99611.63;5057342;28;20037;-72
2023/05/21 17:28:35;;;;;;;7.10;3.08;;;;;;;21.61;50.02;99611.63;5055933;28;20500;-72
2023/05/21 17:31:01;;;;;;;9.37;3.20;;;;;;;21.59;50.11;99615.34;5058321;28;20393;-72
2023/05/21 17:33:27;;;;;;;6.35;3.17;;;;;;;21.58;50.25;99618.97;5057818;28;20025;-72
2023/05/21 17:35:55;;;;;;;8.03;3.60;;;;;;;21.60;50.14;99617.09;5055732;28;20036;-72
2023/05/21 17:38:20;;;;;;;6.07;2.67;;;;;;;21.57;50.28;99628.84;5053981;28;20191;-74
2023/05/21 17:40:47;;;;;;;7.07;3.57;;;;;;;21.50;50.08;99617.63;5056617;28;20029;-74
2023/05/21 17:43:13;;;;;;;7.73;3.23;;;;;;;21.41;50.26;99626.22;5057661;28;20293;-72
2023/05/21 17:45:38;;;;;;;8.15;3.35;;;;;;;21.35;50.04;99624.75;5056560;28;20029;-72
2023/05/21 17:48:03;;;;;;;7.03;3.57;;;;;;;21.32;50.52;99624.94;5056621;28;20026;-72
2023/05/21 17:50:29;;;;;;;5.93;3.33;;;;;;;21.30;50.87;99625.97;5058165;28;20078;-72
2023/05/21 17:52:54;;;;;;;7.77;3.33;;;;;;;21.21;50.84;99628.25;5056192;28;20024;-72
2023/05/21 17:55:20;;;;;;;9.57;3.43;;;;;;;21.18;51.19;99631.13;5057178;28;20085;-72
2023/05/21 17:57:45;;;;;;;7.60;3.47;;;;;;;21.15;51.48;99623.28;5057558;28;20275;-71
2023/05/21 18:00:11;;;;;;;35.57;4.47;;;;;;;21.11;51.15;99636.91;5058029;28;20040;-71
2023/05/21 18:02:36;;;;;;;9.43;2.80;;;;;;;21.06;51.60;99632.69;5057997;28;20481;-71
2023/05/21 18:05:02;;;;;;;8.40;3.30;;;;;;;21.01;51.66;99639.25;5054475;28;20629;-71
2023/05/21 18:07:27;;;;;;;6.57;3.20;;;;;;;20.98;51.75;99642.13;5055312;28;20033;-72
2023/05/21 18:09:53;;;;;;;5.90;2.90;;;;;;;20.93;51.66;99643.25;5056578;28;20013;-71
2023/05/21 18:12:18;;;;;;;5.28;3.08;;;;;;;20.90;52.29;99643.44;5056942;28;20036;-71
2023/05/21 18:14:43;;;;;;;9.63;3.33;;;;;;;20.84;52.30;99646.44;5056908;28;20679;-71
2023/05/21 18:17:09;;;;;;;6.97;3.10;;;;;;;20.80;52.43;99660.94;5057287;28;20443;-71
2023/05/21 18:19:34;;;;;;;7.37;3.10;;;;;;;20.72;52.29;99657.81;5056046;28;20013;-71
2023/05/21 18:22:00;;;;;;;5.95;3.25;;;;;;;20.66;52.58;99659.00;5057340;28;20024;-71
2023/05/21 18:24:25;;;;;;;8.33;3.30;;;;;;;20.58;52.83;99659.44;5056926;28;20476;-71
2023/05/21 18:26:51;;;;;;;6.50;3.23;;;;;;;20.51;53.32;99660.72;5057914;28;20392;-71
2023/05/21 18:29:16;;;;;;;8.80;3.40;;;;;;;20.44;53.68;99667.38;5055673;28;20031;-71
2023/05/21 18:31:44;;;;;;;7.73;3.50;;;;;;;20.39;54.12;99666.78;5055346;28;20044;-71
2023/05/21 18:34:10;;;;;;;6.73;3.53;;;;;;;20.36;54.26;99668.63;5056789;28;20268;-72
2023/05/21 18:36:37;;;;;;;6.43;3.42;;;;;;;20.31;54.44;99672.53;5057323;28;20021;-72
2023/05/21 18:39:08;;;;;;;6.97;3.20;;;;;;;20.25;54.89;99671.03;5055697;28;20029;-72
2023/05/21 18:41:33;;;;;;;7.25;3.40;;;;;;;20.20;54.75;99673.13;5057355;28;20428;-73
2023/05/21 18:44:00;;;;;;;6.13;3.20;;;;;;;20.14;54.99;99679.66;5056005;28;20033;-72
2023/05/21 18:46:27;;;;;;;5.75;3.17;;;;;;;20.13;54.95;99677.03;5057268;28;20028;-72
2023/05/21 18:48:52;;;;;;;6.18;3.30;;;;;;;20.10;54.88;99677.19;5057320;28;20366;-72
2023/05/21 18:51:17;;;;;;;6.37;3.23;;;;;;;20.06;55.28;99677.38;5056281;28;20070;-72
2023/05/21 18:53:43;;;;;;;7.17;3.33;;;;;;;20.01;55.26;99686.56;5054799;28;20024;-72
2023/05/21 18:56:09;;;;;;;6.47;3.00;;;;;;;19.94;55.24;99694.06;5052625;28;20025;-72
2023/05/21 18:58:34;;;;;;;6.43;3.03;;;;;;;19.90;55.62;99687.97;5050183;28;20307;-72
2023/05/21 19:01:00;;;;;;;10.85;3.30;;;;;;;19.87;55.68;99690.81;5057184;28;20519;-72
2023/05/21 19:03:26;;;;;;;6.33;3.03;;;;;;;19.83;55.67;99699.06;5057115;28;20064;-72
2023/05/21 19:05:52;;;;;;;6.10;2.95;;;;;;;19.79;55.81;99696.56;5056922;28;20045;-72
2023/05/21 19:08:17;;;;;;;6.63;2.93;;;;;;;19.73;56.23;99696.88;5056921;28;20077;-73
2023/05/21 19:10:43;;;;;;;5.47;3.00;;;;;;;19.68;56.39;99698.94;5061261;28;20024;-73
2023/05/21 19:13:08;;;;;;;5.43;3.00;;;;;;;19.61;56.45;99698.38;5055343;28;20302;-72
2023/05/21 19:15:33;;;;;;;6.30;3.00;;;;;;;19.57;56.72;99702.16;5056499;28;20493;-73
2023/05/21 19:18:00;;;;;;;6.40;3.00;;;;;;;19.56;56.70;99704.88;5056650;28;20063;-72
2023/05/21 19:20:26;;;;;;;7.45;3.45;;;;;;;19.51;57.06;99702.44;5056640;28;20111;-73
2023/05/21 19:22:52;;;;;;;5.47;2.92;;;;;;;19.51;57.16;99708.66;5056828;28;20061;-73
2023/05/21 19:25:18;;;;;;;6.73;3.20;;;;;;;19.48;57.36;99708.81;5056645;28;20028;-73
2023/05/21 19:27:43;;;;;;;6.75;3.45;;;;;;;19.45;57.41;99708.97;5056746;28;20029;-73
2023/05/21 19:30:09;;;;;;;6.63;3.33;;;;;;;19.40;57.26;99719.00;5056524;28;20036;-73
2023/05/21 19:32:34;;;;;;;6.47;3.40;;;;;;;19.38;57.74;99718.19;5056729;28;20029;-73
2023/05/21 19:35:00;;;;;;;6.53;3.20;;;;;;;19.33;57.88;99714.91;5056419;28;20466;-73
2023/05/21 19:37:26;;;;;;;6.20;3.17;;;;;;;19.27;57.93;99712.53;5055102;28;20036;-72
2023/05/21 19:39:51;;;;;;;5.90;2.90;;;;;;;19.25;58.19;99714.44;5049447;28;20056;-72
2023/05/21 19:42:18;;;;;;;6.13;2.77;;;;;;;19.21;58.37;99727.03;5056336;28;20054;-72
2023/05/21 19:44:44;;;;;;;5.50;3.35;;;;;;;19.17;58.08;99726.34;5056461;28;20025;-72
2023/05/21 19:47:09;;;;;;;8.07;3.30;;;;;;;19.15;58.48;99722.88;5053211;28;20048;-74
2023/05/21 19:49:35;;;;;;;6.82;3.05;;;;;;;19.10;58.84;99724.03;5056208;28;20029;-73
2023/05/21 19:52:01;;;;;;;8.80;3.40;;;;;;;19.05;58.88;99726.94;5055813;28;20045;-72
2023/05/21 19:54:26;;;;;;;7.05;3.42;;;;;;;18.96;59.14;99727.34;5052819;28;20036;-73
2023/05/21 19:56:52;;;;;;;5.87;3.17;;;;;;;18.91;59.25;99735.56;5049164;28;20101;-74
2023/05/21 19:59:17;;;;;;;6.27;3.20;;;;;;;18.83;59.44;99743.06;5053486;28;20021;-73
2023/05/21 20:01:43;;;;;;;7.97;3.30;;;;;;;18.80;59.54;99749.41;5048225;28;20021;-73
2023/05/21 20:04:09;;;;;;;6.70;3.73;;;;;;;18.76;59.70;99742.50;5050036;28;20680;-75
2023/05/21 20:06:35;;;;;;;6.03;3.30;;;;;;;18.73;60.02;99747.97;5054125;28;20029;-75
2023/05/21 20:09:00;;;;;;;8.10;3.73;;;;;;;18.70;60.11;99753.44;5052343;28;20033;-75
2023/05/21 20:11:26;;;;;;;8.00;3.80;;;;;;;18.66;59.89;99752.72;5055294;28;20021;-75
2023/05/21 20:13:52;;;;;;;6.10;3.40;;;;;;;18.62;60.20;99749.31;5055022;28;20025;-75
2023/05/21 20:16:18;;;;;;;6.83;3.50;;;;;;;18.59;60.17;99745.94;5054601;28;20570;-75
2023/05/21 20:18:47;;;;;;;9.18;3.78;;;;;;;18.58;60.48;99757.53;5051647;28;20032;-75
2023/05/21 20:21:13;;;;;;;6.10;3.10;;;;;;;18.54;60.57;99766.59;5053862;28;20033;-74
2023/05/21 20:23:39;;;;;;;7.85;3.17;;;;;;;18.53;60.48;99765.75;5055271;28;20100;-75
2023/05/21 20:26:04;;;;;;;7.57;3.90;;;;;;;18.51;60.62;99773.78;5050903;28;20035;-75
2023/05/21 20:28:29;;;;;;;6.80;3.40;;;;;;;18.49;60.60;99774.81;5057824;28;20037;-74
2023/05/21 20:31:01;;;;;;;6.60;3.27;;;;;;;18.46;60.62;99778.47;5056155;28;20037;-74
2023/05/21 20:33:29;;;;;;;9.45;3.95;;;;;;;18.43;60.96;99767.06;5058966;28;20112;-74
2023/05/21 20:35:54;;;;;;;7.03;3.53;;;;;;;18.38;60.90;99779.75;5058959;28;20086;-75
2023/05/21 20:38:20;;;;;;;6.80;3.70;;;;;;;18.35;61.08;99773.63;5056991;28;20029;-74
2023/05/21 20:40:45;;;;;;;8.13;4.40;;;;;;;18.34;61.15;99774.56;5055508;28;20025;-75
2023/05/21 20:43:12;;;;;;;8.40;4.47;;;;;;;18.32;61.14;99776.44;5057698;28;20115;-74
2023/05/21 20:45:38;;;;;;;6.57;3.70;;;;;;;18.28;61.12;99782.84;5055853;28;20051;-74
2023/05/21 20:48:08;;;;;;;7.90;3.40;;;;;;;18.27;61.17;99778.44;5052227;28;20025;-74
2023/05/21 20:50:34;;;;;;;5.50;3.17;;;;;;;18.22;61.10;99781.28;5058575;28;20108;-74
2023/05/21 20:53:00;;;;;;;6.40;3.80;;;;;;;18.18;61.61;99786.81;5057709;28;20021;-74
2023/05/21 20:55:26;;;;;;;7.23;3.53;;;;;;;18.16;61.53;99791.34;5057318;28;20021;-75
2023/05/21 20:57:51;;;;;;;6.30;3.35;;;;;;;18.12;61.68;99782.63;5058676;28;20047;-73
2023/05/21 21:00:17;;;;;;;6.77;4.00;;;;;;;18.08;61.95;99789.88;5058474;28;20096;-74
2023/05/21 21:02:43;;;;;;;9.00;3.90;;;;;;;18.05;61.96;99784.69;5057872;28;20021;-74
2023/05/21 21:05:09;;;;;;;6.37;3.73;;;;;;;18.02;61.96;99790.16;5056643;28;20047;-74
2023/05/21 21:07:38;;;;;;;7.38;4.03;;;;;;;17.99;62.07;99779.59;5056843;28;20405;-74
2023/05/21 21:10:04;;;;;;;7.47;4.07;;;;;;;18.00;62.07;99783.13;5056304;28;20119;-74
2023/05/21 21:12:30;;;;;;;7.57;4.00;;;;;;;17.98;62.13;99787.66;5055001;28;20031;-74
2023/05/21 21:14:55;;;;;;;8.52;4.00;;;;;;;17.97;62.21;99785.91;5058055;28;20025;-74
2023/05/21 21:17:21;;;;;;;7.07;4.00;;;;;;;17.94;62.13;99786.91;5058572;28;20036;-74
2023/05/21 21:19:47;;;;;;;6.47;3.60;;;;;;;17.88;62.28;99785.38;5051508;28;20021;-74
2023/05/21 21:22:13;;;;;;;7.20;4.10;;;;;;;17.86;62.62;99781.03;5055734;28;20083;-74
2023/05/21 21:24:39;;;;;;;10.55;5.32;;;;;;;17.84;62.49;99788.22;5054735;28;20043;-77
2023/05/21 21:27:05;;;;;;;15.47;8.60;;;;;;;17.83;62.59;99778.50;5054545;28;20127;-75
2023/05/21 21:29:30;;;;;;;8.55;5.18;;;;;;;17.82;62.58;99777.63;5058351;28;20024;-72
2023/05/21 21:31:56;;;;;;;8.13;4.40;;;;;;;17.79;62.75;99773.31;5058518;28;20037;-74
2023/05/21 21:34:23;;;;;;;9.68;4.53;;;;;;;17.75;62.75;99779.72;5055480;28;20370;-76
2023/05/21 21:36:49;;;;;;;8.23;4.50;;;;;;;17.76;62.79;99778.78;5049005;28;20469;-75
2023/05/21 21:39:16;;;;;;;9.57;4.70;;;;;;;17.73;62.92;99776.25;5058234;28;20037;-76
2023/05/21 21:41:42;;;;;;;7.88;4.20;;;;;;;17.71;63.20;99779.91;5058174;28;20047;-76
2023/05/21 21:44:07;;;;;;;9.10;4.47;;;;;;;17.70;63.20;99781.69;5056294;28;20029;-75
2023/05/21 21:46:33;;;;;;;7.70;5.00;;;;;;;17.69;63.08;99779.94;5056872;28;20096;-77
2023/05/21 21:48:58;;;;;;;9.33;5.10;;;;;;;17.68;63.14;99778.22;5055996;28;20029;-77
2023/05/21 21:51:24;;;;;;;8.60;4.60;;;;;;;17.64;63.18;99784.59;5056803;28;20025;-77
2023/05/21 21:53:49;;;;;;;7.57;4.20;;;;;;;17.60;63.46;99788.31;5057759;28;20037;-77
2023/05/21 21:56:15;;;;;;;8.70;4.70;;;;;;;17.55;63.67;99785.84;5057755;28;20040;-77
2023/05/21 21:58:40;;;;;;;9.47;4.80;;;;;;;17.53;63.75;99795.69;5056771;28;20037;-77
2023/05/21 22:01:06;;;;;;;9.97;4.80;;;;;;;17.53;63.81;99793.03;5058440;28;20418;-77
2023/05/21 22:03:34;;;;;;;7.63;4.33;;;;;;;17.54;63.83;99796.56;5058194;28;20024;-77
2023/05/21 22:06:00;;;;;;;7.65;4.50;;;;;;;17.52;64.00;99796.63;5058082;28;20043;-77
2023/05/21 22:08:27;;;;;;;8.65;4.55;;;;;;;17.54;63.89;99793.91;5057936;28;20036;-77
2023/05/21 22:10:53;;;;;;;9.05;5.03;;;;;;;17.53;63.94;99797.50;5060888;28;20116;-77
2023/05/21 22:13:18;;;;;;;8.00;4.70;;;;;;;17.48;64.13;99795.91;5057781;28;20076;-77
2023/05/21 22:15:44;;;;;;;8.02;4.43;;;;;;;17.45;64.23;99796.00;5056591;28;20474;-77
2023/05/21 22:18:10;;;;;;;7.23;4.30;;;;;;;17.46;64.42;99802.19;5058128;28;20033;-77
2023/05/21 22:20:37;;;;;;;7.63;4.90;;;;;;;17.46;64.43;99802.19;5056958;28;20047;-77
2023/05/21 22:23:02;;;;;;;11.20;4.65;;;;;;;17.48;64.40;99800.34;5058009;28;20120;-77
2023/05/21 22:25:28;;;;;;;9.67;4.67;;;;;;;17.46;64.56;99808.38;5058155;28;20032;-77
2023/05/21 22:27:53;;;;;;;8.30;4.70;;;;;;;17.47;64.61;99810.09;5056612;28;20393;-77
2023/05/21 22:30:19;;;;;;;9.65;5.10;;;;;;;17.47;64.63;99798.59;5056461;28;20017;-77
2023/05/21 22:32:45;;;;;;;8.17;4.77;;;;;;;17.44;64.44;99806.72;5058144;28;20134;-77
2023/05/21 22:35:11;;;;;;;7.67;4.50;;;;;;;17.43;64.60;99803.16;5058052;28;20272;-77
2023/05/21 22:37:37;;;;;;;7.60;4.70;;;;;;;17.43;64.84;99807.66;5057803;28;20378;-77
2023/05/21 22:40:06;;;;;;;7.63;4.60;;;;;;;17.42;64.79;99811.25;5057471;28;20025;-77
2023/05/21 22:42:33;;;;;;;9.63;4.63;;;;;;;17.42;64.90;99813.91;5057644;28;20031;-77
2023/05/21 22:44:58;;;;;;;7.05;4.70;;;;;;;17.41;64.94;99805.03;5057522;28;20027;-77
2023/05/21 22:47:25;;;;;;;9.13;4.87;;;;;;;17.40;64.95;99805.97;5057703;28;20028;-77
2023/05/21 22:49:52;;;;;;;9.20;5.22;;;;;;;17.38;65.01;99814.97;5056784;28;20473;-77
2023/05/21 22:52:20;;;;;;;8.02;4.82;;;;;;;17.35;65.22;99818.59;5057378;28;20033;-77
2023/05/21 22:54:46;;;;;;;7.45;4.65;;;;;;;17.34;65.37;99819.53;5055689;28;20021;-77
2023/05/21 22:57:12;;;;;;;6.77;4.10;;;;;;;17.34;65.57;99815.03;5056055;28;20031;-77
2023/05/21 22:59:38;;;;;;;7.32;4.30;;;;;;;17.35;65.58;99810.59;5057364;28;20055;-77
2023/05/21 23:02:03;;;;;;;8.93;4.63;;;;;;;17.34;65.56;99825.69;5055649;28;20037;-77
2023/05/21 23:04:31;;;;;;;9.10;4.80;;;;;;;17.32;65.66;99819.56;5056991;28;20586;-77
2023/05/21 23:06:57;;;;;;;9.10;4.80;;;;;;;17.32;65.63;99816.06;5056709;28;20087;-77
2023/05/21 23:09:22;;;;;;;8.47;4.60;;;;;;;17.32;65.66;99816.06;5058425;28;20009;-77
2023/05/21 23:11:48;;;;;;;7.50;4.60;;;;;;;17.29;65.67;99811.72;5059527;28;20020;-77
2023/05/21 23:14:13;;;;;;;7.85;4.93;;;;;;;17.29;65.74;99810.84;5052129;28;20040;-77
2023/05/21 23:16:42;;;;;;;8.00;4.80;;;;;;;17.29;65.83;99819.69;5056702;28;20501;-77
2023/05/21 23:19:08;;;;;;;7.95;4.97;;;;;;;17.30;65.77;99823.22;5057290;28;20104;-77
2023/05/21 23:21:34;;;;;;;8.18;4.90;;;;;;;17.24;66.01;99823.44;5056981;28;20064;-77
2023/05/21 23:23:59;;;;;;;8.23;4.93;;;;;;;17.17;66.21;99818.38;5055363;28;20393;-77
2023/05/21 23:26:25;;;;;;;8.43;5.03;;;;;;;17.14;66.36;99823.81;5056838;28;20048;-77
2023/05/21 23:28:50;;;;;;;7.93;4.90;;;;;;;17.13;66.36;99816.75;5055451;28;20017;-78
2023/05/21 23:31:16;;;;;;;8.68;5.05;;;;;;;17.12;66.58;99825.69;5056482;28;20021;-77